sensor_id;sensor_type;location;lat;lon;timestamp;pressure;altitude;pressure_sealevel;temperature;humidity
46382;BME280;66809;52.974;-2.514;2023-03-31T00:01:49;983.9792199507399;;;9.23673449846479;44.0049404254001
46382;BME280;66809;52.974;-2.514;2023-03-31T00:03:48;983.921250165231;;;9.207403258770325;44.00127876621483
46382;BME280;66809;52.974;-2.514;2023-03-31T00:05:54;983.8622331951823;;;9.193831036033187;44.001723536967944
46382;BME280;66809;52.974;-2.514;2023-03-31T00:07:52;983.8017139414383;;;9.169398136101487;44.00629789189925
46382;BME280;66809;52.974;-2.514;2023-03-31T00:09:49;983.7407070468146;;;9.16494300792926;44.019752349729266
46382;BME280;66809;52.974;-2.514;2023-03-31T00:11:49;983.6805033859597;;;9.144532670962384;44.028322390741096
46382;BME280;66809;52.974;-2.514;2023-03-31T00:13:49;983.6203914293477;;;9.130138134551817;44.02236790572614
46382;BME280;66809;52.974;-2.514;2023-03-31T00:15:48;983.5601346701678;;;9.121051633613142;44.0269690515189
46382;BME280;66809;52.974;-2.514;2023-03-31T00:17:49;983.5015129409239;;;9.106346234308575;44.035467483638996
46382;BME280;66809;52.974;-2.514;2023-03-31T00:19:49;983.4399727027662;;;9.084213513672697;44.04833077958029
46382;BME280;66809;52.974;-2.514;2023-03-31T00:21:49;983.3790948365314;;;9.072083524758352;44.062466370267565
46382;BME280;66809;52.974;-2.514;2023-03-31T00:23:49;983.3183935550272;;;9.052185742680832;44.07836052672906
46382;BME280;66809;52.974;-2.514;2023-03-31T00:25:49;983.2568497124633;;;9.032691248632732;44.104414669211494
46382;BME280;66809;52.974;-2.514;2023-03-31T00:27:49;983.1946507181817;;;9.010734991577234;44.128207666515145
46382;BME280;66809;52.974;-2.514;2023-03-31T00:29:49;983.1338485114169;;;8.988644301345108;44.150338934420525
46382;BME280;66809;52.974;-2.514;2023-03-31T00:31:49;983.0723572003352;;;8.971122283054635;44.16934970041236
46382;BME280;66809;52.974;-2.514;2023-03-31T00:33:49;983.0088227695945;;;8.97154477066215;44.19223696392864
46382;BME280;66809;52.974;-2.514;2023-03-31T00:35:50;982.9453596108511;;;8.965159742603316;44.22618144910739
46382;BME280;66809;52.974;-2.514;2023-03-31T00:37:49;982.8817136658274;;;8.952941346679015;44.246890280203395
46382;BME280;66809;52.974;-2.514;2023-03-31T00:39:49;982.8170741329469;;;8.935030417327145;44.25512368106472
46382;BME280;66809;52.974;-2.514;2023-03-31T00:41:49;982.752037709349;;;8.93274310347414;44.25616213015296
46382;BME280;66809;52.974;-2.514;2023-03-31T00:44:08;982.6862820934119;;;8.933682128819758;44.249114329649665
46382;BME280;66809;52.974;-2.514;2023-03-31T00:45:50;982.6205795065094;;;8.931161549130367;44.24138980752366
46382;BME280;66809;52.974;-2.514;2023-03-31T00:47:53;982.5542887882333;;;8.932623485908472;44.223335790770776
46382;BME280;66809;52.974;-2.514;2023-03-31T00:49:50;982.4850165834494;;;8.934387893010257;44.19229348052738
46382;BME280;66809;52.974;-2.514;2023-03-31T00:51:51;982.4155110869395;;;8.927859595756654;44.16532011753694
46382;BME280;66809;52.974;-2.514;2023-03-31T00:53:52;982.3454058000827;;;8.911082944993648;44.146228319999615
46382;BME280;66809;52.974;-2.514;2023-03-31T00:55:51;982.2782299360747;;;8.897595887347267;44.14047255017739
46382;BME280;66809;52.974;-2.514;2023-03-31T00:57:50;982.2130680006646;;;8.889710928781632;44.14008610215966
46382;BME280;66809;52.974;-2.514;2023-03-31T00:59:51;982.1470805751701;;;8.876450722637962;44.136476416061505
46382;BME280;66809;52.974;-2.514;2023-03-31T01:01:49;982.0821887834965;;;8.85587442480166;44.139678514154795
46382;BME280;66809;52.974;-2.514;2023-03-31T01:03:49;982.0158999981834;;;8.84335358413799;44.14788397372501
46382;BME280;66809;52.974;-2.514;2023-03-31T01:05:52;981.9510921932999;;;8.82846340674139;44.155490181791386
46382;BME280;66809;52.974;-2.514;2023-03-31T01:07:50;981.888009123993;;;8.814932353399042;44.17078703772226
46382;BME280;66809;52.974;-2.514;2023-03-31T01:09:49;981.8237327090907;;;8.80324973460478;44.18345060202766
46382;BME280;66809;52.974;-2.514;2023-03-31T01:11:49;981.7579726226103;;;8.795921312045001;44.20426243496965
46382;BME280;66809;52.974;-2.514;2023-03-31T01:13:50;981.6918652027066;;;8.76965498768387;44.23149964079824
46382;BME280;66809;52.974;-2.514;2023-03-31T01:15:49;981.6247865956005;;;8.760226089090796;44.26585823072902
46382;BME280;66809;52.974;-2.514;2023-03-31T01:17:51;981.5568499253072;;;8.741697909484394;44.29069719685961
46382;BME280;66809;52.974;-2.514;2023-03-31T01:20:00;981.4919081029791;;;8.737081307085019;44.3076931649838
46382;BME280;66809;52.974;-2.514;2023-03-31T01:22:13;981.4256441585592;;;8.713963214035795;44.31952347286761
46382;BME280;66809;52.974;-2.514;2023-03-31T01:25:13;981.3596415047248;;;8.704215032559876;44.326078201504124
46382;BME280;66809;52.974;-2.514;2023-03-31T01:26:05;981.292493735511;;;8.690797188687942;44.329029350387614
46382;BME280;66809;52.974;-2.514;2023-03-31T01:27:57;981.2261982900332;;;8.679765488641804;44.33131005703829
46382;BME280;66809;52.974;-2.514;2023-03-31T01:30:03;981.1595080396748;;;8.674730771115048;44.33223213783868
46382;BME280;66809;52.974;-2.514;2023-03-31T01:32:10;981.0910385915236;;;8.651980409069559;44.35085591934679
46382;BME280;66809;52.974;-2.514;2023-03-31T01:34:03;981.024677827558;;;8.62165056311294;44.37033084978676
46382;BME280;66809;52.974;-2.514;2023-03-31T01:36:10;980.9591114940174;;;8.597797602885112;44.39318924263701
46382;BME280;66809;52.974;-2.514;2023-03-31T01:42:32;979.9620209271403;;;8.09335264133424;45.5683051999074
46382;BME280;66809;52.974;-2.514;2023-03-31T01:44:35;979.9597792008324;;;8.107368556637425;45.53915721457412
46382;BME280;66809;52.974;-2.514;2023-03-31T01:46:32;979.9519323004656;;;8.138525102958786;45.54039058873954
46382;BME280;66809;52.974;-2.514;2023-03-31T01:48:37;979.9343515315728;;;8.140630391107226;45.55759224750009
46382;BME280;66809;52.974;-2.514;2023-03-31T01:50:34;979.9165604380021;;;8.135028486473319;45.59283332507298
46382;BME280;66809;52.974;-2.514;2023-03-31T01:52:36;979.8982560543853;;;8.115271501356508;45.63256326217527
46382;BME280;66809;52.974;-2.514;2023-03-31T01:54:34;979.8783528869213;;;8.104241847171913;45.68507725577591
46382;BME280;66809;52.974;-2.514;2023-03-31T01:56:32;979.8595085023298;;;8.108272813252919;45.69160468480142
46382;BME280;66809;52.974;-2.514;2023-03-31T01:58:31;979.8400884372825;;;8.112486823743394;45.68683572382846
46382;BME280;66809;52.974;-2.514;2023-03-31T02:00:32;979.8155161544529;;;8.112548867010302;45.67285158369021
46382;BME280;66809;52.974;-2.514;2023-03-31T02:02:30;979.7907722372292;;;8.108793119414347;45.65360900007183
46382;BME280;66809;52.974;-2.514;2023-03-31T02:04:32;979.7631006029634;;;8.11325610546036;45.63649182314458
46382;BME280;66809;52.974;-2.514;2023-03-31T02:06:32;979.7354462157447;;;8.122437960316915;45.62914654381251
46382;BME280;66809;52.974;-2.514;2023-03-31T02:08:31;979.7072327322858;;;8.117555392831404;45.629661130016885
46382;BME280;66809;52.974;-2.514;2023-03-31T02:10:30;979.6808616619013;;;8.11868305429033;45.627106767961
46382;BME280;66809;52.974;-2.514;2023-03-31T02:12:30;979.6534398418812;;;8.122803009797481;45.636168695912716
46382;BME280;66809;52.974;-2.514;2023-03-31T02:14:29;979.6260743517248;;;8.112820868045398;45.654298490214025
46382;BME280;66809;52.974;-2.514;2023-03-31T02:16:31;979.5988157207271;;;8.107715249406898;45.67843749747704
46382;BME280;66809;52.974;-2.514;2023-03-31T02:18:30;979.571050025196;;;8.095286112244835;45.69390908271933
46382;BME280;66809;52.974;-2.514;2023-03-31T02:20:29;979.5430508503406;;;8.096190620797953;45.7019541827436
46382;BME280;66809;52.974;-2.514;2023-03-31T02:22:31;979.5143565345991;;;8.092237933165976;45.69945968715439
46382;BME280;66809;52.974;-2.514;2023-03-31T02:24:30;979.4858181611055;;;8.092313504684514;45.70578617121272
46382;BME280;66809;52.974;-2.514;2023-03-31T02:26:30;979.4560516987142;;;8.08698640125735;45.72563290769391
46382;BME280;66809;52.974;-2.514;2023-03-31T02:28:29;979.4266929411043;;;8.084813284821939;45.74948584229731
46382;BME280;66809;52.974;-2.514;2023-03-31T02:30:33;979.3789043493481;;;8.006964502931629;45.78288771975302
46382;BME280;66809;52.974;-2.514;2023-03-31T02:32:31;979.3291824312529;;;8.017319179444309;45.81581879687861
46382;BME280;66809;52.974;-2.514;2023-03-31T02:34:28;979.2770993784451;;;8.031985035769587;45.84386773802219
46382;BME280;66809;52.974;-2.514;2023-03-31T02:36:28;979.2228122532799;;;8.042099034699891;45.87892717396492
46382;BME280;66809;52.974;-2.514;2023-03-31T02:38:33;979.1678808143513;;;8.049406822894586;45.919310885510214
46382;BME280;66809;52.974;-2.514;2023-03-31T02:40:29;979.1106299969016;;;8.056712682217851;45.97044609284121
46382;BME280;66809;52.974;-2.514;2023-03-31T02:42:29;979.0522607269853;;;8.030725788010132;46.03836052276293
46382;BME280;66809;52.974;-2.514;2023-03-31T02:44:28;978.9932480353867;;;8.016923612421985;46.103474510971274
46382;BME280;66809;52.974;-2.514;2023-03-31T02:46:28;978.9336722550337;;;8.001884306388941;46.153194716170205
46382;BME280;66809;52.974;-2.514;2023-03-31T02:48:31;978.8779439567465;;;7.989435758325841;46.201450687720126
46382;BME280;66809;52.974;-2.514;2023-03-31T02:50:32;978.8210198035575;;;7.974823055739858;46.256825387668634
46382;BME280;66809;52.974;-2.514;2023-03-31T02:52:36;978.7641558897079;;;7.968229729842201;46.32075023782981
46382;BME280;66809;52.974;-2.514;2023-03-31T02:54:46;978.7079448664732;;;7.9514157701125106;46.38006083231426
46382;BME280;66809;52.974;-2.514;2023-03-31T02:56:42;978.6501608666608;;;7.933107321208846;46.4634417120178
46382;BME280;66809;52.974;-2.514;2023-03-31T02:58:41;978.5946340619787;;;7.902676953832861;46.558920655286194
46382;BME280;66809;52.974;-2.514;2023-03-31T03:00:39;978.5408002981857;;;7.881832157430058;46.654126875977845
46382;BME280;66809;52.974;-2.514;2023-03-31T03:02:36;978.4877458675788;;;7.862457692420822;46.753625778146734
46382;BME280;66809;52.974;-2.514;2023-03-31T03:04:41;978.4368557700805;;;7.8331680533717;46.859193120953215
46382;BME280;66809;52.974;-2.514;2023-03-31T03:06:37;978.3847245990032;;;7.814924877714536;46.95888348175649
46382;BME280;66809;52.974;-2.514;2023-03-31T03:08:36;978.3325972351118;;;7.796481992824575;47.05335551362956
46382;BME280;66809;52.974;-2.514;2023-03-31T03:10:36;978.2793425625579;;;7.771201934237992;47.145880796058265
46382;BME280;66809;52.974;-2.514;2023-03-31T03:12:34;978.2266717829212;;;7.744559744174286;47.23181737847325
46382;BME280;66809;52.974;-2.514;2023-03-31T03:14:32;978.1743049182355;;;7.744314326654294;47.30515102395353
46382;BME280;66809;52.974;-2.514;2023-03-31T03:16:34;978.1222320245807;;;7.730321453609989;47.38290880754192
46382;BME280;66809;52.974;-2.514;2023-03-31T03:18:28;978.0706894308478;;;7.718631715343875;47.46755070796057
46382;BME280;66809;52.974;-2.514;2023-03-31T03:20:28;978.020046841359;;;7.6927047229534375;47.55508215640029
46382;BME280;66809;52.974;-2.514;2023-03-31T03:22:28;977.9704514557511;;;7.6668375987739665;47.65773432614438
46382;BME280;66809;52.974;-2.514;2023-03-31T03:24:29;977.920711296602;;;7.6437485057199925;47.749617744772046
46382;BME280;66809;52.974;-2.514;2023-03-31T03:26:28;977.8712857875925;;;7.623289208751216;47.833613430272486
46382;BME280;66809;52.974;-2.514;2023-03-31T03:28:28;977.8215637020107;;;7.595890892890351;47.91228732920988
46382;BME280;66809;52.974;-2.514;2023-03-31T03:30:29;977.772002471311;;;7.592554693130961;47.993545227751795
46382;BME280;66809;52.974;-2.514;2023-03-31T03:32:28;977.7233471470869;;;7.57503412298784;48.07137559186698
46382;BME280;66809;52.974;-2.514;2023-03-31T03:34:29;977.6752418751909;;;7.561672449042248;48.150028709733434
46382;BME280;66809;52.974;-2.514;2023-03-31T03:36:29;977.6278140098005;;;7.53783458735421;48.22711896977436
46382;BME280;66809;52.974;-2.514;2023-03-31T03:38:28;977.5788531421218;;;7.517122209096941;48.29771543790989
46382;BME280;66809;52.974;-2.514;2023-03-31T03:40:29;977.5312816828056;;;7.514548476188521;48.35506651576459
46382;BME280;66809;52.974;-2.514;2023-03-31T03:42:28;977.4841571533059;;;7.517393906013734;48.394495233337196
46382;BME280;66809;52.974;-2.514;2023-03-31T03:44:28;977.43746492672;;;7.501203616667235;48.44574551214114
46382;BME280;66809;52.974;-2.514;2023-03-31T03:46:29;977.3906143561835;;;7.488731477164069;48.50656667418864
46382;BME280;66809;52.974;-2.514;2023-03-31T03:48:28;977.3436570110804;;;7.478344916203786;48.56133196860491
46382;BME280;66809;52.974;-2.514;2023-03-31T03:50:29;977.2989276720436;;;7.473675430892365;48.592635233872834
46382;BME280;66809;52.974;-2.514;2023-03-31T03:52:29;977.2547939483942;;;7.468139501920704;48.60931252832516
46382;BME280;66809;52.974;-2.514;2023-03-31T03:54:28;977.2099699199227;;;7.471863419882611;48.62068339040204
46382;BME280;66809;52.974;-2.514;2023-03-31T03:56:28;977.1671222632664;;;7.467779946477364;48.62539088878627
46382;BME280;66809;52.974;-2.514;2023-03-31T03:58:29;977.1209854618617;;;7.482399089648143;48.61457408592424
46382;BME280;66809;52.974;-2.514;2023-03-31T04:00:29;977.0746004853794;;;7.49643851583399;48.60452344473774
46382;BME280;66809;52.974;-2.514;2023-03-31T04:02:28;977.028529834993;;;7.510563889147089;48.59258125378186
46382;BME280;66809;52.974;-2.514;2023-03-31T04:04:28;976.9831054619358;;;7.530125223129732;48.5622250012568
46382;BME280;66809;52.974;-2.514;2023-03-31T04:06:29;976.9393615462637;;;7.534068464437202;48.543969654081366
46382;BME280;66809;52.974;-2.514;2023-03-31T04:08:28;976.8970170830764;;;7.545866531996202;48.52811569852289
46382;BME280;66809;52.974;-2.514;2023-03-31T04:10:28;976.8539403440784;;;7.552393685750806;48.52057437131627
46382;BME280;66809;52.974;-2.514;2023-03-31T04:12:29;976.81213853201;;;7.561240791754584;48.51328697689591
46382;BME280;66809;52.974;-2.514;2023-03-31T04:14:29;976.7715283216487;;;7.554009621896762;48.51016922759725
46382;BME280;66809;52.974;-2.514;2023-03-31T04:16:28;976.7314828503111;;;7.555601400210444;48.501842323650266
46382;BME280;66809;52.974;-2.514;2023-03-31T04:18:29;976.6938463767962;;;7.574007841438526;48.48975266643818
46382;BME280;66809;52.974;-2.514;2023-03-31T04:20:28;976.6560411945939;;;7.583468275815564;48.48218695990145
46382;BME280;66809;52.974;-2.514;2023-03-31T04:22:28;976.6185311027317;;;7.605426751727501;48.47174060603899
46382;BME280;66809;52.974;-2.514;2023-03-31T04:24:29;976.581330438775;;;7.613536411949883;48.46129647680566
46382;BME280;66809;52.974;-2.514;2023-03-31T04:26:30;976.5469815822081;;;7.627290160108203;48.44590990354251
46382;BME280;66809;52.974;-2.514;2023-03-31T04:28:28;976.5141478818078;;;7.640472586519616;48.4341133747483
46382;BME280;66809;52.974;-2.514;2023-03-31T04:30:29;976.4826230888102;;;7.638567088775556;48.41286316635764
46382;BME280;66809;52.974;-2.514;2023-03-31T04:32:29;976.450331706518;;;7.6499217560942006;48.39270117755758
46382;BME280;66809;52.974;-2.514;2023-03-31T04:34:28;976.4186673525808;;;7.655041234545042;48.37398952237115
46382;BME280;66809;52.974;-2.514;2023-03-31T04:36:29;976.3866952879822;;;7.67511507482359;48.34288259118114
46382;BME280;66809;52.974;-2.514;2023-03-31T04:38:28;976.355930082866;;;7.697213755172597;48.3118963313933
46382;BME280;66809;52.974;-2.514;2023-03-31T04:40:28;976.3254245362128;;;7.702290190718275;48.284104833632234
46382;BME280;66809;52.974;-2.514;2023-03-31T04:42:29;976.2954832873212;;;7.710207501893039;48.26122695197351
46382;BME280;66809;52.974;-2.514;2023-03-31T04:44:28;976.2656035728926;;;7.731615327031907;48.23075059752553
46382;BME280;66809;52.974;-2.514;2023-03-31T04:46:28;976.2381158866557;;;7.743516141830574;48.201152220415416
46382;BME280;66809;52.974;-2.514;2023-03-31T04:48:28;976.2103660676291;;;7.758406082583448;48.17230839332797
46382;BME280;66809;52.974;-2.514;2023-03-31T04:50:29;976.1816630776362;;;7.768261413234106;48.159684931507975
46382;BME280;66809;52.974;-2.514;2023-03-31T04:52:28;976.1536341459292;;;7.775823048125132;48.15607777426755
46382;BME280;66809;52.974;-2.514;2023-03-31T04:54:29;976.1273751644782;;;7.778276378197377;48.16310585424155
46382;BME280;66809;52.974;-2.514;2023-03-31T04:56:29;976.1017820717059;;;7.781629753898444;48.17785472472438
46382;BME280;66809;52.974;-2.514;2023-03-31T04:58:28;976.0784573509284;;;7.779470486703271;48.19708017924832
46382;BME280;66809;52.974;-2.514;2023-03-31T05:00:29;976.0571878338512;;;7.7688609163884115;48.22287531357986
46382;BME280;66809;52.974;-2.514;2023-03-31T05:02:28;976.0361017115448;;;7.762851685983326;48.250755336322406
46382;BME280;66809;52.974;-2.514;2023-03-31T05:04:28;976.0159013331636;;;7.746996400895849;48.28788811886523
46382;BME280;66809;52.974;-2.514;2023-03-31T05:06:29;975.9966064342211;;;7.741022704344341;48.308922680979514
46382;BME280;66809;52.974;-2.514;2023-03-31T05:08:28;975.9766621334202;;;7.741650911639438;48.32608799574901
46382;BME280;66809;52.974;-2.514;2023-03-31T05:10:29;975.9584476466083;;;7.743448902121876;48.33379006148209
46382;BME280;66809;52.974;-2.514;2023-03-31T05:12:32;975.9403661025785;;;7.74981748471368;48.33891864846872
46382;BME280;66809;52.974;-2.514;2023-03-31T05:14:29;975.922766290237;;;7.7610675321031675;48.337973405881364
46382;BME280;66809;52.974;-2.514;2023-03-31T05:16:28;975.9054477327528;;;7.778921422082065;48.32105056276963
46382;BME280;66809;52.974;-2.514;2023-03-31T05:18:28;975.8868208690772;;;7.782024536121593;48.303738548439284
46382;BME280;66809;52.974;-2.514;2023-03-31T05:20:29;975.8691113521504;;;7.794163114441151;48.27675178794292
46382;BME280;66809;52.974;-2.514;2023-03-31T05:22:28;975.8521841872391;;;7.81048878251136;48.245033663050535
46382;BME280;66809;52.974;-2.514;2023-03-31T05:24:29;975.8375781155898;;;7.8299800125111965;48.21923169354541
46382;BME280;66809;52.974;-2.514;2023-03-31T05:26:29;975.8225373323559;;;7.843120357206538;48.19240358334141
46382;BME280;66809;52.974;-2.514;2023-03-31T05:28:28;975.8086056954187;;;7.862501335286024;48.15916962702828
46382;BME280;66809;52.974;-2.514;2023-03-31T05:30:28;975.7957021112601;;;7.885168475516128;48.13086656340311
46382;BME280;66809;52.974;-2.514;2023-03-31T05:32:29;975.7845105197729;;;7.90718867916055;48.10294254637347
46382;BME280;66809;52.974;-2.514;2023-03-31T05:34:29;975.7747741367227;;;7.933317410288702;48.06531911818056
46382;BME280;66809;52.974;-2.514;2023-03-31T05:36:28;975.7666089413294;;;7.959184710274172;48.02430866280429
46382;BME280;66809;52.974;-2.514;2023-03-31T05:38:29;975.7593507280221;;;7.978752571576743;47.97938457152493
46382;BME280;66809;52.974;-2.514;2023-03-31T05:40:28;975.7527354014202;;;8.005278211376163;47.93183899556258
46382;BME280;66809;52.974;-2.514;2023-03-31T05:42:28;975.7473779418966;;;8.01868946857397;47.88562468475892
46382;BME280;66809;52.974;-2.514;2023-03-31T05:44:29;975.7443589328946;;;8.03857660547626;47.8400126056621
46382;BME280;66809;52.974;-2.514;2023-03-31T05:46:28;975.740830648888;;;8.062597470168496;47.790251646952804
46382;BME280;66809;52.974;-2.514;2023-03-31T05:48:28;975.737450583623;;;8.084671068974364;47.73524576568041
46382;BME280;66809;52.974;-2.514;2023-03-31T05:50:28;975.7363390952833;;;8.107805246504327;47.670469870587446
46382;BME280;66809;52.974;-2.514;2023-03-31T05:52:29;975.7341164618912;;;8.148804340903334;47.60028581232445
46382;BME280;66809;52.974;-2.514;2023-03-31T05:54:28;975.7315490103908;;;8.19229234410973;47.516058874060626
46382;BME280;66809;52.974;-2.514;2023-03-31T05:56:28;975.7294697809622;;;8.236924968810051;47.42371806098712
46382;BME280;66809;52.974;-2.514;2023-03-31T05:58:29;975.7279415492252;;;8.282296983204368;47.3311666519124
46382;BME280;66809;52.974;-2.514;2023-03-31T06:00:29;975.727569824717;;;8.328433554139073;47.23648711714487
46382;BME280;66809;52.974;-2.514;2023-03-31T06:02:29;975.7280812499115;;;8.372799297741205;47.14037226025079
46382;BME280;66809;52.974;-2.514;2023-03-31T06:04:28;975.7279335020154;;;8.428716692278702;47.04844577085756
46382;BME280;66809;52.974;-2.514;2023-03-31T06:06:28;975.7276612482963;;;8.485185697292518;46.955913840595834
46382;BME280;66809;52.974;-2.514;2023-03-31T06:08:29;975.7293140981958;;;8.52537133640817;46.87129798771118
46382;BME280;66809;52.974;-2.514;2023-03-31T06:10:29;975.7307799224975;;;8.58276118402889;46.78724655870955
46382;BME280;66809;52.974;-2.514;2023-03-31T06:12:28;975.7323353229764;;;8.63840250922538;46.69461891481673
46382;BME280;66809;52.974;-2.514;2023-03-31T06:14:28;975.7340086336886;;;8.691951821704095;46.601242343843815
46382;BME280;66809;52.974;-2.514;2023-03-31T06:16:29;975.7362129052751;;;8.74230846235276;46.51285907367425
46382;BME280;66809;52.974;-2.514;2023-03-31T06:18:30;975.7395889332796;;;8.791542251927263;46.43098243017016
46382;BME280;66809;52.974;-2.514;2023-03-31T06:20:29;975.7437095749045;;;8.846184935426892;46.35640029200293
46382;BME280;66809;52.974;-2.514;2023-03-31T06:22:28;975.7490206944514;;;8.891418512431953;46.281225442648335
46382;BME280;66809;52.974;-2.514;2023-03-31T06:24:28;975.7530542227163;;;8.929265812594705;46.189924534376
46382;BME280;66809;52.974;-2.514;2023-03-31T06:26:29;975.7576279191799;;;8.977928376048627;46.10173606755542
46382;BME280;66809;52.974;-2.514;2023-03-31T06:28:29;975.7618203205335;;;9.025742361661774;46.01420931215554
46382;BME280;66809;52.974;-2.514;2023-03-31T06:30:28;975.7665980998524;;;9.069774524408558;45.92777017719488
46382;BME280;66809;52.974;-2.514;2023-03-31T06:32:28;975.7722619300366;;;9.11603322694953;45.84084819873083
46382;BME280;66809;52.974;-2.514;2023-03-31T06:34:29;975.7775646354501;;;9.152023846213131;45.757071731965546
46382;BME280;66809;52.974;-2.514;2023-03-31T06:36:28;975.7840006774734;;;9.195492195653761;45.689002538579885
46382;BME280;66809;52.974;-2.514;2023-03-31T06:38:28;975.7899375628047;;;9.240733372348737;45.62337663182924
46382;BME280;66809;52.974;-2.514;2023-03-31T06:40:29;975.7967546948643;;;9.278050571522483;45.55400847525136
46382;BME280;66809;52.974;-2.514;2023-03-31T06:42:29;975.8045135842564;;;9.334537980463722;45.49297068599598
46382;BME280;66809;52.974;-2.514;2023-03-31T06:44:28;975.8114459237597;;;9.393574154659339;45.43350701483053
46382;BME280;66809;52.974;-2.514;2023-03-31T06:46:29;975.8187249708584;;;9.436100621842078;45.380677456848176
46382;BME280;66809;52.974;-2.514;2023-03-31T06:48:29;975.8267650094988;;;9.484834184700405;45.33486999923861
46382;BME280;66809;52.974;-2.514;2023-03-31T06:50:28;975.834205152142;;;9.545707565443967;45.28084083064855
46382;BME280;66809;52.974;-2.514;2023-03-31T06:52:30;975.8424613412627;;;9.586228096593436;45.22847291045017
46382;BME280;66809;52.974;-2.514;2023-03-31T06:54:28;975.8523318972022;;;9.63021667185903;45.17646155658893
46382;BME280;66809;52.974;-2.514;2023-03-31T06:56:29;975.8615457184846;;;9.672365253718223;45.11532362634011
46382;BME280;66809;52.974;-2.514;2023-03-31T06:58:28;975.8701856156994;;;9.719359792069525;45.06953473098752
46382;BME280;66809;52.974;-2.514;2023-03-31T07:00:29;975.8785048413743;;;9.76915220581578;45.019747126182686
46382;BME280;66809;52.974;-2.514;2023-03-31T07:02:29;975.8865757027208;;;9.820179756005926;44.97358039469517
46382;BME280;66809;52.974;-2.514;2023-03-31T07:04:28;975.8953369933666;;;9.863834455141477;44.92908897795092
46382;BME280;66809;52.974;-2.514;2023-03-31T07:06:29;975.90561355018;;;9.9073799958586;44.889170621221474
46382;BME280;66809;52.974;-2.514;2023-03-31T07:08:29;975.9155210766435;;;9.970931047826989;44.83682878157944
46382;BME280;66809;52.974;-2.514;2023-03-31T07:10:32;975.926653390293;;;10.02904811244381;44.783472723222914
46382;BME280;66809;52.974;-2.514;2023-03-31T07:12:31;975.9390070031866;;;10.062776431239298;44.730345586164525
46382;BME280;66809;52.974;-2.514;2023-03-31T07:14:28;975.9517285070898;;;10.111695414441822;44.68374859597444
46382;BME280;66809;52.974;-2.514;2023-03-31T07:16:29;975.9656066408681;;;10.15933730328418;44.63594624944347
46382;BME280;66809;52.974;-2.514;2023-03-31T07:18:28;975.9795069630002;;;10.20456781107245;44.582456585072386
46382;BME280;66809;52.974;-2.514;2023-03-31T07:20:29;975.9943614236868;;;10.247529791671871;44.53443908634131
46382;BME280;66809;52.974;-2.514;2023-03-31T07:22:28;976.0085648269522;;;10.288478250943282;44.48325901914733